Brentwood, New Hampshire
Current Conditions -  °F | °C
As of 12:58 AM on Sunday 26 Oct 2014 (Local Time) from KPSM Reporting Station
Overcast Overcast  
Wind Chill: 54°   Ceiling: 25000
Heat Index: 54°   Visibility: 10mi
Dew Point: 44°   Wind: 6mph
Humidity: 70%   Direction: 230°SW
Pressure: 29.45"   Gusts: NA
Location:  42.9832°N, 70.9915°W
Report Text: KPSM 260458Z 23005KT 10SM FEW070 SCT140 OVC250 12/07 A2945 RMK AO2A SLP976 T01220069 401910060
Loading
Personal Weather Stations






























Interactive Weather Map New forecast layout! Learn more

10-Day Weather Forecast

Advertisements
Track Severe Weather on mobile